Flight Track Log - Related Links

Times and Time Zones

All times are in EDT time to prevent confusion due to time zone crossing. See the UCA596 flight status page for this flight to view local times or setup timezone preferences in your user account.


Time Position Orientation Groundspeed Altitude Reporting Facility
EDT Latitude Longitude Course Direction KTS MPH feet Rate Location/Type
Mon 12:57:04 PM 38.9667 -77.4333 360° North 123 142 1,800  Level Potomac TRACON
Mon 12:58:04 PM 39.0000 -77.4333 360° North 182 209 2,900 1,550 Climbing Potomac TRACON
Mon 12:59:04 PM 39.0500 -77.4333 360° North 172 198 4,900 1,843 Climbing Potomac TRACON
Mon 01:00:50 PM 39.1367 -77.4486 352° North 183 211 8,000 1,509 Climbing Washington Center
Mon 01:01:51 PM 39.1908 -77.4503 359° North 178 205 9,100 1,311 Climbing Washington Center
Mon 01:02:49 PM 39.2472 -77.4517 359° North 184 212 10,600 1,412 Climbing Washington Center
Mon 01:03:50 PM 39.3033 -77.4503 North 189 217 11,900 1,190 Climbing Washington Center
Mon 01:04:50 PM 39.3575 -77.4517 359° North 189 217 13,000 545 Climbing Washington Center
Mon 01:05:51 PM 39.4222 -77.4533 359° North 209 241 13,000  Level Washington Center
Mon 01:06:49 PM 39.4931 -77.4553 359° North 229 264 13,000  Level Washington Center
Mon 01:07:49 PM 39.5639 -77.4542 North 244 281 13,000 862 Level Washington Center
Mon 01:09:36 PM 39.6803 -77.4531 360° North 240 276 15,400 1,084 Climbing New York Center
Mon 01:10:35 PM 39.7367 -77.4531 360° North 224 258 16,000 403 Climbing New York Center
Mon 01:11:35 PM 39.8117 -77.4519 North 240 276 16,200 650 Climbing New York Center
Mon 01:12:35 PM 39.8714 -77.4278 17° North 246 283 17,300 1,091 Climbing New York Center
Mon 01:13:36 PM 39.9339 -77.3933 23° Northeast 230 265 18,400 857 Climbing New York Center
Mon 01:14:34 PM 39.9903 -77.3553 27° Northeast 238 274 19,000 300 Climbing New York Center
Mon 01:15:36 PM 40.0558 -77.2989 33° Northeast 253 291 19,000  Level New York Center
Mon 01:16:34 PM 40.1211 -77.2508 29° Northeast 263 303 19,000  Level New York Center
Mon 01:17:34 PM 40.1892 -77.1892 35° Northeast 279 321 19,000  Level New York Center
Mon 01:18:35 PM 40.2489 -77.1239 40° Northeast 284 327 19,000  Level New York Center
Mon 01:19:36 PM 40.3147 -77.0619 36° Northeast 289 333 19,000  Level New York Center
Mon 01:20:34 PM 40.3897 -77.0225 22° Northeast 289 333 19,000  Level New York Center
Mon 01:21:35 PM 40.4611 -76.9769 26° Northeast 284 327 19,000 -246 Level New York Center
Mon 01:22:36 PM 40.5403 -76.9378 21° North 284 327 18,500 -756 Descending New York Center
Mon 01:23:34 PM 40.6194 -76.8983 21° North 300 345 17,500 -857 Descending New York Center
Mon 01:24:35 PM 40.6964 -76.8586 21° North 300 345 16,800 -787 Descending New York Center
Mon 01:25:36 PM 40.7753 -76.8244 18° North 295 339 15,900 -843 Descending New York Center
Mon 01:26:36 PM 40.8467 -76.7761 27° Northeast 295 339 15,100 -744 Descending New York Center
Mon 01:27:37 PM 40.9161 -76.7217 31° Northeast 295 339 14,400 -763 Descending New York Center
Mon 01:28:34 PM 40.9847 -76.6783 25° Northeast 280 322 13,600 -706 Descending New York Center
Mon 01:29:36 PM 41.0553 -76.6458 19° North 275 316 13,000 -300 Descending New York Center
Mon 01:30:34 PM 41.1256 -76.6133 19° North 275 316 13,000  Level New York Center
Mon 01:31:35 PM 41.1986 -76.5700 24° Northeast 266 306 13,000  Level New York Center
Mon 01:32:35 PM 41.2650 -76.5314 24° Northeast 261 300 13,000  Level New York Center
Mon 01:33:36 PM 41.3378 -76.4908 23° Northeast 266 306 13,000  Level New York Center
Mon 01:34:34 PM 41.3983 -76.4461 29° Northeast 266 306 13,000  Level New York Center
Mon 01:35:34 PM 41.4617 -76.3850 36° Northeast 276 318 13,000  Level New York Center
Mon 01:36:36 PM 41.5383 -76.3500 19° North 268 308 13,000 -198 Level New York Center
Mon 01:37:35 PM 41.6128 -76.3144 20° North 263 303 12,600 -958 Descending New York Center
Mon 01:38:35 PM 41.6772 -76.2753 24° Northeast 269 310 11,100 -1,361 Descending New York Center
Mon 01:39:34 PM 41.7306 -76.2464 22° Northeast 238 274 9,900 -1,261 Descending New York Center
Mon 01:40:34 PM 41.7986 -76.2131 20° North 226 260 8,600 -942 Descending New York Center
Mon 01:41:35 PM 41.8564 -76.1789 24° Northeast 231 266 8,000 -298 Descending New York Center
Mon 01:42:35 PM 41.9225 -76.1425 22° Northeast 237 273 8,000 -595 Level New York Center
Mon 01:43:36 PM 41.9825 -76.1081 23° Northeast 244 281 6,800 -1,160 Descending New York Center
Mon 01:44:34 PM 42.0572 -76.0667 22° Northeast 255 293 5,700 -1,109 Descending New York Center
Mon 01:45:35 PM 42.1253 -76.0358 19° North 255 293 4,600 -1,230 Descending New York Center
Mon 01:46:36 PM 42.1919 -76.0356 360° North 245 282 3,200 -950 Descending New York Center
Mon 01:47:35 PM 42.2367 -76.0558 341° North 206 237 2,700 -500 Descending New York Center
Mon 01:48:36 PM 42.2431 -76.0089 80° East 108 124 2,200 -252 Descending New York Center
Mon 01:49:34 PM 42.2728 -75.9944 20° North 108 124 2,200 3,429 Level New York Center
Mon 01:50:35 PM 42.2983 -75.9769 27° Northeast 108 124 9,000 3,372 Climbing New York Center
Mon 01:51:35 PM 42.3264 -75.9567 28° Northeast 108 124 9,000  Level New York Center
Mon 01:53:00 PM 42.2314 -75.9642 183° South  Level FlightAware Approximate
Mon 02:00:00 PM 42.2000 -75.9667 North  Level FlightAware Approximate
Mon 02:01:00 PM 42.2086 -75.9797 North  Level Estimated
Mon 02:02:00 PM 42.2086 -75.9797 North  Level Estimated
Mon 02:03:00 PM 42.2086 -75.9797 North  Level Estimated
Mon 02:04:00 PM 42.2086 -75.9797 North  Level Estimated

Login

Don't have an account? Register now (free) for customized features, flight alerts, and more!